Ishpeming, Michigan
Current Conditions -  °F | °C
As of 7:45 AM on Friday 19 Dec 2014 (Local Time) from KSAW Reporting Station
Overcast Overcast  
Wind Chill: 19°   Ceiling: 2000
Heat Index: 19°   Visibility: 10mi
Dew Point: 18°   Wind: 0mph
Humidity: 93%   Direction: NA
Pressure: 30.24"   Gusts: NA
Location:  46.49°N, 87.67°W
Report Text: KSAW 191245Z 00000KT 10SM OVC020 M07/M08 A3024
Loading
Personal Weather Stations






























Interactive Weather Map New forecast layout! Learn more

10-Day Weather Forecast

Advertisements
Track Severe Weather on mobile